Time;durP1;ratioP1;P1;durP2;ratioP2;P2;SDS_P1;SDS_P2;PMS_P1;PMS_P2;Temp;Humidity;BMP_temperature;BMP_pressure;BME280_temperature;BME280_humidity;BME280_pressure;Samples;Min_cycle;Max_cycle;Signal;HPM_P1;HPM_P2
2023/11/30 00:02:07;;;;;;;13.20;10.60;;;5.80;99.90;;;;;;5104825;28;20039;-75
2023/11/30 00:04:34;;;;;;;10.80;8.50;;;5.80;99.90;;;;;;5107660;28;20032;-76
2023/11/30 00:07:02;;;;;;;10.35;7.90;;;5.80;99.90;;;;;;5107653;28;20036;-72
2023/11/30 00:09:29;;;;;;;9.10;8.20;;;5.70;99.90;;;;;;5110573;28;20042;-73
2023/11/30 00:11:56;;;;;;;9.40;7.75;;;5.70;99.90;;;;;;5108674;28;20032;-74
2023/11/30 00:14:24;;;;;;;10.18;8.38;;;5.70;99.90;;;;;;5110556;28;20035;-77
2023/11/30 00:16:51;;;;;;;8.73;7.82;;;5.60;99.90;;;;;;5110441;28;20078;-75
2023/11/30 00:19:18;;;;;;;10.43;7.93;;;5.60;99.90;;;;;;5110880;28;20470;-77
2023/11/30 00:21:46;;;;;;;9.43;7.75;;;5.50;99.90;;;;;;5107359;28;20035;-80
2023/11/30 00:24:13;;;;;;;8.93;8.02;;;5.50;99.90;;;;;;5109358;28;20482;-76
2023/11/30 00:26:42;;;;;;;10.05;8.10;;;5.30;99.90;;;;;;5106701;27;20028;-74
2023/11/30 00:29:09;;;;;;;10.18;8.55;;;5.30;99.90;;;;;;5089689;28;20378;-71
2023/11/30 00:31:36;;;;;;;10.02;8.75;;;5.40;99.90;;;;;;5106369;27;20047;-76
2023/11/30 00:34:07;;;;;;;9.23;8.23;;;5.40;99.90;;;;;;5105018;28;20526;-74
2023/11/30 00:36:34;;;;;;;9.02;7.82;;;5.40;99.90;;;;;;5107025;28;20042;-75
2023/11/30 00:39:01;;;;;;;14.95;11.50;;;5.40;99.90;;;;;;5105976;27;20124;-75
2023/11/30 00:41:28;;;;;;;11.57;8.88;;;5.30;99.90;;;;;;5100481;27;20052;-75
2023/11/30 00:43:56;;;;;;;10.95;8.65;;;5.30;99.90;;;;;;5089594;27;20046;-75
2023/11/30 00:46:23;;;;;;;9.52;8.32;;;5.30;99.90;;;;;;5103929;27;20065;-73
2023/11/30 00:48:50;;;;;;;11.35;8.50;;;5.30;99.90;;;;;;5101035;27;20076;-73
2023/11/30 00:51:18;;;;;;;10.63;8.90;;;5.40;99.90;;;;;;5107431;27;20031;-75
2023/11/30 00:53:45;;;;;;;9.30;8.10;;;5.30;99.90;;;;;;5107551;28;20097;-74
2023/11/30 00:56:12;;;;;;;9.88;8.77;;;5.30;99.90;;;;;;5098759;27;20158;-72
2023/11/30 00:58:40;;;;;;;10.60;8.63;;;5.20;99.90;;;;;;5107703;27;20493;-73
2023/11/30 01:01:07;;;;;;;184.52;82.45;;;5.20;99.90;;;;;;5110380;28;20031;-77
2023/11/30 01:03:34;;;;;;;45.83;30.80;;;5.50;99.90;;;;;;5087303;28;20585;-76
2023/11/30 01:06:02;;;;;;;23.48;18.45;;;5.70;99.90;;;;;;5111095;28;20039;-75
2023/11/30 01:08:29;;;;;;;13.30;11.10;;;5.80;99.90;;;;;;5110390;27;20373;-72
2023/11/30 01:10:57;;;;;;;11.20;9.15;;;5.50;99.90;;;;;;5105601;28;20114;-74
2023/11/30 01:13:24;;;;;;;12.13;9.82;;;5.30;99.90;;;;;;5107385;27;20085;-75
2023/11/30 01:15:51;;;;;;;12.68;9.40;;;5.30;99.90;;;;;;5104070;28;20031;-72
2023/11/30 01:18:19;;;;;;;11.57;9.82;;;5.10;99.90;;;;;;5106997;28;20051;-73
2023/11/30 01:20:46;;;;;;;11.60;9.25;;;5.10;99.90;;;;;;5110116;28;20456;-75
2023/11/30 01:23:14;;;;;;;12.95;9.13;;;5.10;99.90;;;;;;5089230;28;20428;-72
2023/11/30 01:25:41;;;;;;;13.05;9.93;;;5.10;99.90;;;;;;5106553;28;20040;-72
2023/11/30 01:28:08;;;;;;;11.73;9.30;;;5.00;99.90;;;;;;5105423;28;20036;-73
2023/11/30 01:30:35;;;;;;;11.98;9.88;;;5.00;99.90;;;;;;5068951;28;20043;-77
2023/11/30 01:33:03;;;;;;;12.75;10.23;;;5.00;99.90;;;;;;5106529;28;20533;-75
2023/11/30 01:35:31;;;;;;;12.23;9.63;;;4.90;99.90;;;;;;5109490;28;20039;-74
2023/11/30 01:37:58;;;;;;;11.32;9.65;;;5.00;99.90;;;;;;5104373;28;20041;-74
2023/11/30 01:40:25;;;;;;;12.45;9.50;;;4.90;99.90;;;;;;5089281;28;20119;-73
2023/11/30 01:42:53;;;;;;;11.73;9.32;;;4.70;99.90;;;;;;5105765;28;20084;-73
2023/11/30 01:45:20;;;;;;;11.70;9.55;;;4.70;99.90;;;;;;5106780;28;20023;-73
2023/11/30 01:47:47;;;;;;;11.18;9.50;;;4.80;99.90;;;;;;5107483;28;20031;-73
2023/11/30 01:50:15;;;;;;;11.32;9.98;;;4.80;99.90;;;;;;5108866;28;20028;-73
2023/11/30 01:52:42;;;;;;;12.65;9.73;;;4.80;99.90;;;;;;5070907;28;20096;-74
2023/11/30 01:55:12;;;;;;;11.43;9.63;;;4.90;99.90;;;;;;5090132;28;20147;-76
2023/11/30 01:57:41;;;;;;;11.50;9.77;;;4.90;99.90;;;;;;5106148;28;20028;-75
2023/11/30 02:00:10;;;;;;;12.68;9.10;;;4.90;99.90;;;;;;5108565;28;20268;-76
2023/11/30 02:02:38;;;;;;;12.32;9.68;;;4.80;99.90;;;;;;5103519;28;20043;-75
2023/11/30 02:05:06;;;;;;;12.75;9.80;;;4.80;99.90;;;;;;5072576;28;20486;-73
2023/11/30 02:07:33;;;;;;;12.93;10.02;;;4.80;99.90;;;;;;5068017;28;20089;-74
2023/11/30 02:10:01;;;;;;;12.75;10.07;;;4.90;99.90;;;;;;5089193;28;20040;-72
2023/11/30 02:12:28;;;;;;;13.18;9.85;;;4.90;99.90;;;;;;5087196;28;20141;-72
2023/11/30 02:14:59;;;;;;;11.20;9.80;;;4.90;99.90;;;;;;5083755;28;20028;-73
2023/11/30 02:17:27;;;;;;;10.43;8.68;;;4.90;99.90;;;;;;5106606;28;20110;-72
2023/11/30 02:19:54;;;;;;;12.68;9.30;;;4.90;99.90;;;;;;5086534;28;20040;-72
2023/11/30 02:22:22;;;;;;;11.45;9.23;;;5.00;99.90;;;;;;5074719;28;20108;-74
2023/11/30 02:24:50;;;;;;;12.20;9.82;;;5.00;99.90;;;;;;5084782;28;20527;-74
2023/11/30 02:27:17;;;;;;;11.20;8.85;;;5.00;99.90;;;;;;5107674;28;20655;-72
2023/11/30 02:29:44;;;;;;;11.02;9.00;;;5.00;99.90;;;;;;5108093;28;20036;-74
2023/11/30 02:32:12;;;;;;;10.93;8.98;;;5.00;99.90;;;;;;5108824;28;20116;-74
2023/11/30 02:34:40;;;;;;;13.98;10.13;;;5.00;99.90;;;;;;5107624;28;20046;-72
2023/11/30 02:37:07;;;;;;;11.38;9.55;;;5.00;99.90;;;;;;5108636;28;20075;-73
2023/11/30 02:39:34;;;;;;;10.60;9.25;;;4.90;99.90;;;;;;5104821;28;20119;-72
2023/11/30 02:42:01;;;;;;;12.80;9.57;;;4.80;99.90;;;;;;5107837;28;20038;-73
2023/11/30 02:44:29;;;;;;;12.57;9.48;;;4.80;99.90;;;;;;5108929;28;20048;-73
2023/11/30 02:47:14;;;;;;;12.65;9.80;;;4.90;99.90;;;;;;5102994;28;20085;-73
2023/11/30 02:49:41;;;;;;;11.13;9.10;;;4.90;99.90;;;;;;5107411;28;20034;-73
2023/11/30 02:52:08;;;;;;;10.48;9.02;;;4.90;99.90;;;;;;5089225;28;20698;-73
2023/11/30 02:54:35;;;;;;;12.13;9.88;;;4.90;99.90;;;;;;5101929;28;20127;-74
2023/11/30 02:57:03;;;;;;;9.52;8.45;;;4.80;99.90;;;;;;5105831;28;20130;-72
2023/11/30 02:59:47;;;;;;;11.85;8.90;;;4.80;99.90;;;;;;5108327;28;20016;-71
2023/11/30 03:02:15;;;;;;;10.25;8.23;;;4.70;99.90;;;;;;5103182;28;20042;-72
2023/11/30 03:04:42;;;;;;;11.55;9.23;;;4.70;99.90;;;;;;5103736;28;20093;-72
2023/11/30 03:07:09;;;;;;;11.10;8.85;;;4.80;99.90;;;;;;5103070;28;20387;-71
2023/11/30 03:09:37;;;;;;;10.43;9.07;;;4.80;99.90;;;;;;5088279;28;20476;-73
2023/11/30 03:12:04;;;;;;;13.65;9.27;;;4.60;99.90;;;;;;5110351;28;20478;-72
2023/11/30 03:14:32;;;;;;;11.27;9.13;;;4.60;99.90;;;;;;5112633;28;20379;-72
2023/11/30 03:16:59;;;;;;;10.73;8.77;;;4.50;99.90;;;;;;5108657;28;20043;-72
2023/11/30 03:19:26;;;;;;;9.98;8.23;;;4.60;99.90;;;;;;5090201;28;20456;-72
2023/11/30 03:21:53;;;;;;;9.65;8.48;;;4.70;99.90;;;;;;5108691;28;20035;-72
2023/11/30 03:24:21;;;;;;;10.57;8.52;;;4.70;99.90;;;;;;5111051;28;20108;-72
2023/11/30 03:26:48;;;;;;;10.60;8.13;;;4.60;99.90;;;;;;5112487;28;20126;-73
2023/11/30 03:29:15;;;;;;;14.55;8.70;;;4.60;99.90;;;;;;5110252;28;20027;-71
2023/11/30 03:32:00;;;;;;;10.93;7.93;;;4.70;99.90;;;;;;5108986;28;20019;-72
2023/11/30 03:37:13;;;;;;;9.15;7.70;;;4.80;99.90;;;;;;5108928;28;20031;-72
2023/11/30 03:39:57;;;;;;;9.50;8.40;;;4.70;99.90;;;;;;5108842;28;20026;-72
2023/11/30 03:42:25;;;;;;;9.75;8.15;;;4.70;99.90;;;;;;5111082;28;20027;-73
2023/11/30 03:44:52;;;;;;;10.05;8.02;;;4.70;99.90;;;;;;5112908;28;20378;-73
2023/11/30 03:47:19;;;;;;;9.40;8.10;;;4.70;99.90;;;;;;5110517;28;20067;-72
2023/11/30 03:49:46;;;;;;;9.73;8.32;;;4.70;99.90;;;;;;5111502;28;20374;-72
2023/11/30 03:52:14;;;;;;;10.13;8.50;;;4.70;99.90;;;;;;5111962;28;20445;-74
2023/11/30 03:54:41;;;;;;;9.40;8.32;;;4.60;99.90;;;;;;5093779;28;20503;-73
2023/11/30 03:57:08;;;;;;;10.07;8.52;;;4.60;99.90;;;;;;5112237;28;20027;-71
2023/11/30 03:59:53;;;;;;;11.40;8.60;;;4.70;99.90;;;;;;5111614;28;20012;-71
2023/11/30 04:02:20;;;;;;;10.20;8.25;;;4.70;99.90;;;;;;5088904;28;20027;-72
2023/11/30 04:04:48;;;;;;;10.10;8.25;;;4.80;99.90;;;;;;5108503;28;20102;-71
2023/11/30 04:07:15;;;;;;;9.70;8.02;;;4.80;99.90;;;;;;5105824;28;20032;-73
2023/11/30 04:09:42;;;;;;;10.05;8.48;;;4.80;99.90;;;;;;5092056;28;20509;-72
2023/11/30 04:12:10;;;;;;;9.25;7.97;;;4.70;99.90;;;;;;5108630;28;20058;-73
2023/11/30 04:14:37;;;;;;;11.85;8.82;;;4.70;99.90;;;;;;5110042;28;20035;-71
2023/11/30 04:17:04;;;;;;;9.25;8.30;;;4.70;99.90;;;;;;5105440;28;20518;-73
2023/11/30 04:19:32;;;;;;;9.77;8.77;;;4.80;99.90;;;;;;5107740;28;20039;-75
2023/11/30 04:21:59;;;;;;;9.27;8.30;;;4.90;99.90;;;;;;5107493;28;20398;-75
2023/11/30 04:24:44;;;;;;;8.95;7.50;;;4.80;99.90;;;;;;5094400;28;20024;-73
2023/11/30 04:27:11;;;;;;;11.55;8.50;;;4.80;99.90;;;;;;5090064;28;20084;-73
2023/11/30 04:29:39;;;;;;;10.25;8.20;;;4.80;99.90;;;;;;5101642;28;20040;-72
2023/11/30 04:32:07;;;;;;;9.75;8.45;;;4.70;99.90;;;;;;5096450;28;20043;-75
2023/11/30 04:34:34;;;;;;;10.80;8.57;;;4.70;99.90;;;;;;5106695;27;20059;-74
2023/11/30 04:37:01;;;;;;;10.90;8.88;;;4.60;99.90;;;;;;5092552;28;20044;-74
2023/11/30 04:39:29;;;;;;;10.75;8.88;;;4.50;99.90;;;;;;5093713;28;20028;-73
2023/11/30 04:41:56;;;;;;;10.15;8.10;;;4.50;99.90;;;;;;5091599;28;20393;-74
2023/11/30 04:44:27;;;;;;;11.82;8.80;;;4.50;99.90;;;;;;5107357;28;20050;-73
2023/11/30 04:46:54;;;;;;;11.65;9.02;;;4.40;99.90;;;;;;5092610;28;20110;-74
2023/11/30 04:49:38;;;;;;;11.13;8.57;;;4.50;99.90;;;;;;5110705;28;20016;-74
2023/11/30 04:52:06;;;;;;;10.27;8.93;;;4.50;99.90;;;;;;5110803;28;20032;-75
2023/11/30 04:54:33;;;;;;;11.82;8.73;;;4.60;99.90;;;;;;5106361;28;20039;-75
2023/11/30 04:57:02;;;;;;;10.40;8.40;;;4.60;99.90;;;;;;5102127;28;20111;-75
2023/11/30 04:59:30;;;;;;;10.85;9.25;;;4.60;99.90;;;;;;5089819;28;20377;-75
2023/11/30 05:01:57;;;;;;;10.43;8.40;;;4.50;99.90;;;;;;5107170;28;20055;-76
2023/11/30 05:04:24;;;;;;;11.48;8.90;;;4.40;99.90;;;;;;5110070;28;20031;-74
2023/11/30 05:06:52;;;;;;;10.07;8.05;;;4.50;99.90;;;;;;5110122;28;20450;-74
2023/11/30 05:09:19;;;;;;;10.43;8.27;;;4.50;99.90;;;;;;5088399;28;20110;-72
2023/11/30 05:11:46;;;;;;;10.93;8.88;;;4.50;99.90;;;;;;5103821;28;20032;-72
2023/11/30 05:14:31;;;;;;;11.77;8.77;;;4.50;99.90;;;;;;5092579;28;20833;-72
2023/11/30 05:16:58;;;;;;;10.43;9.05;;;4.40;99.90;;;;;;5110755;28;20200;-73
2023/11/30 05:19:25;;;;;;;13.77;9.77;;;4.50;99.90;;;;;;5104968;28;20040;-73
2023/11/30 05:21:52;;;;;;;12.00;8.38;;;4.50;99.90;;;;;;5084804;28;20059;-72
2023/11/30 05:24:37;;;;;;;9.70;8.63;;;4.50;99.90;;;;;;5104519;28;20020;-74
2023/11/30 05:27:22;;;;;;;10.02;8.30;;;4.50;99.90;;;;;;5108711;28;20035;-73
2023/11/30 05:29:49;;;;;;;10.80;8.93;;;4.50;99.90;;;;;;5103857;28;20060;-73
2023/11/30 05:32:16;;;;;;;11.43;8.75;;;4.40;99.90;;;;;;5101991;28;20032;-75
2023/11/30 05:34:44;;;;;;;11.00;8.13;;;4.30;99.90;;;;;;5100849;28;20047;-74
2023/11/30 05:37:11;;;;;;;10.27;8.80;;;4.30;99.90;;;;;;5089890;28;20486;-75
2023/11/30 05:39:38;;;;;;;10.55;8.43;;;4.30;99.90;;;;;;5094733;28;20036;-75
2023/11/30 05:42:06;;;;;;;10.85;8.93;;;4.30;99.90;;;;;;5098952;28;20035;-75
2023/11/30 05:44:34;;;;;;;10.32;9.02;;;4.30;99.90;;;;;;5088351;28;20055;-74
2023/11/30 05:47:01;;;;;;;9.98;8.50;;;4.40;99.90;;;;;;5079298;28;20090;-72
2023/11/30 05:49:29;;;;;;;11.30;9.23;;;4.30;99.90;;;;;;5081702;28;20101;-73
2023/11/30 05:51:56;;;;;;;11.20;9.25;;;4.20;99.90;;;;;;5062897;28;20056;-73
2023/11/30 05:54:23;;;;;;;13.48;9.63;;;4.20;99.90;;;;;;5080220;28;20501;-73
2023/11/30 05:56:51;;;;;;;12.80;9.05;;;4.20;99.90;;;;;;5081109;28;20038;-73
2023/11/30 05:59:19;;;;;;;12.25;9.75;;;4.20;99.90;;;;;;5086266;28;20056;-73
2023/11/30 06:01:47;;;;;;;11.07;9.00;;;4.30;99.90;;;;;;5089234;28;20073;-72
2023/11/30 06:04:14;;;;;;;14.95;10.13;;;4.40;99.90;;;;;;5085303;28;20039;-74
2023/11/30 06:06:41;;;;;;;59.63;33.22;;;4.20;99.90;;;;;;5070947;28;20118;-74
2023/11/30 06:09:09;;;;;;;64.43;34.75;;;4.40;99.90;;;;;;5089724;28;20368;-76
2023/11/30 06:11:36;;;;;;;20.45;14.57;;;4.50;99.90;;;;;;5084720;28;20115;-72
2023/11/30 06:14:03;;;;;;;11.90;10.13;;;4.40;99.90;;;;;;5089733;28;20036;-73
2023/11/30 06:16:30;;;;;;;10.95;8.70;;;4.40;99.90;;;;;;5084629;28;20079;-73
2023/11/30 06:18:58;;;;;;;11.55;9.55;;;4.40;99.90;;;;;;5087549;28;20055;-72
2023/11/30 06:21:42;;;;;;;13.13;9.27;;;4.50;99.90;;;;;;5065026;28;20024;-73
2023/11/30 06:24:10;;;;;;;11.50;8.65;;;4.30;99.90;;;;;;5085785;28;20036;-75
2023/11/30 06:26:37;;;;;;;10.82;9.18;;;4.40;99.90;;;;;;5084783;28;20085;-74
2023/11/30 06:29:04;;;;;;;11.30;8.77;;;4.40;99.90;;;;;;5088666;28;20040;-75
2023/11/30 06:31:31;;;;;;;28.25;16.65;;;4.40;99.90;;;;;;5085233;28;20051;-74
2023/11/30 06:33:59;;;;;;;79.63;44.33;;;4.60;99.90;;;;;;5047639;28;20067;-75
2023/11/30 06:36:26;;;;;;;69.07;37.25;;;4.70;99.90;;;;;;5088203;28;20035;-76
2023/11/30 06:38:54;;;;;;;350.70;164.43;;;4.80;99.90;;;;;;5085219;28;20075;-74
2023/11/30 06:41:21;;;;;;;36.15;27.55;;;4.80;99.90;;;;;;5088615;28;20071;-74
2023/11/30 06:43:49;;;;;;;19.13;15.98;;;4.90;99.90;;;;;;5090561;28;20052;-73
2023/11/30 06:46:20;;;;;;;12.63;11.15;;;5.00;99.90;;;;;;5099058;28;20020;-75
2023/11/30 06:48:48;;;;;;;12.65;8.30;;;5.10;99.90;;;;;;5090546;28;20025;-73
2023/11/30 06:51:16;;;;;;;12.55;9.68;;;5.10;99.90;;;;;;5094003;28;20387;-74
2023/11/30 06:53:44;;;;;;;11.82;9.88;;;5.20;99.90;;;;;;5104967;28;20043;-75
2023/11/30 06:56:12;;;;;;;13.90;9.77;;;5.10;99.90;;;;;;5098531;28;20028;-74
2023/11/30 06:58:39;;;;;;;15.30;11.07;;;5.10;99.90;;;;;;5101238;28;20431;-75
2023/11/30 07:01:07;;;;;;;70.20;35.30;;;5.20;99.90;;;;;;5101487;28;20051;-76
2023/11/30 07:03:35;;;;;;;60.47;34.17;;;5.70;99.90;;;;;;5096339;28;20135;-76
2023/11/30 07:06:09;;;;;;;23.58;16.67;;;5.90;99.90;;;;;;5101777;28;20374;-73
2023/11/30 07:08:39;;;;;;;14.10;11.90;;;5.70;99.90;;;;;;5084090;28;20036;-74
2023/11/30 07:11:10;;;;;;;16.40;11.63;;;5.70;99.90;;;;;;5088725;28;20031;-73
2023/11/30 07:13:38;;;;;;;14.27;10.65;;;5.60;99.90;;;;;;5101434;28;20085;-73
2023/11/30 07:16:06;;;;;;;13.63;9.75;;;5.60;99.90;;;;;;5100212;28;20064;-75
2023/11/30 07:18:34;;;;;;;14.15;10.00;;;5.60;99.90;;;;;;5096152;28;20032;-76
2023/11/30 07:21:01;;;;;;;13.50;10.98;;;5.60;99.90;;;;;;5102890;28;20459;-74
2023/11/30 07:23:29;;;;;;;13.07;11.05;;;5.50;99.90;;;;;;5091290;28;20389;-72
2023/11/30 07:25:58;;;;;;;12.40;9.70;;;5.60;99.90;;;;;;5099484;28;20554;-75
2023/11/30 07:28:26;;;;;;;14.07;10.30;;;5.80;99.90;;;;;;5102503;28;20059;-74
2023/11/30 07:30:53;;;;;;;12.35;9.73;;;5.90;99.90;;;;;;5108190;28;20697;-75
2023/11/30 07:33:21;;;;;;;13.35;9.80;;;5.80;99.90;;;;;;5106115;28;20042;-73
2023/11/30 07:35:48;;;;;;;14.35;10.82;;;5.80;99.90;;;;;;5107393;28;20036;-73
2023/11/30 07:38:15;;;;;;;13.13;9.93;;;5.80;99.90;;;;;;5110117;28;20575;-72
2023/11/30 07:40:43;;;;;;;13.20;10.25;;;5.90;99.90;;;;;;5101473;28;20035;-72
2023/11/30 07:43:28;;;;;;;13.20;10.38;;;5.90;99.90;;;;;;5108550;28;20081;-75
2023/11/30 07:45:56;;;;;;;13.80;9.93;;;6.00;99.90;;;;;;5087103;28;20123;-73
2023/11/30 07:48:23;;;;;;;18.77;11.07;;;5.90;99.90;;;;;;5109093;27;20031;-76
2023/11/30 07:50:53;;;;;;;15.30;10.82;;;6.00;99.90;;;;;;5112534;27;20459;-74
2023/11/30 07:53:23;;;;;;;14.57;10.85;;;6.00;99.90;;;;;;5111266;28;20374;-75
2023/11/30 07:55:56;;;;;;;14.77;10.43;;;6.00;99.90;;;;;;5107436;28;20385;-74
2023/11/30 07:58:24;;;;;;;16.15;11.10;;;5.80;99.90;;;;;;5111090;28;20046;-74
2023/11/30 08:00:52;;;;;;;18.92;11.52;;;5.80;99.90;;;;;;5089600;28;20039;-74
2023/11/30 08:03:20;;;;;;;15.18;11.13;;;5.80;99.90;;;;;;5107541;28;20043;-72
2023/11/30 08:05:47;;;;;;;16.73;10.88;;;5.90;99.90;;;;;;5106296;28;20035;-74
2023/11/30 08:08:15;;;;;;;15.13;10.43;;;5.90;99.90;;;;;;5111762;28;20040;-74
2023/11/30 08:10:43;;;;;;;14.50;10.73;;;5.80;99.90;;;;;;5112339;28;20039;-74
2023/11/30 08:13:12;;;;;;;13.23;10.23;;;5.90;99.90;;;;;;5111626;28;20116;-74
2023/11/30 08:15:57;;;;;;;14.73;11.10;;;6.00;99.90;;;;;;5111576;28;20026;-75
2023/11/30 08:18:24;;;;;;;17.90;10.77;;;6.00;99.90;;;;;;5111259;28;20402;-74
2023/11/30 08:20:54;;;;;;;15.50;10.90;;;6.00;99.90;;;;;;5110059;28;20421;-73
2023/11/30 08:23:22;;;;;;;16.75;11.40;;;5.90;99.90;;;;;;5106350;28;20122;-75
2023/11/30 08:25:49;;;;;;;14.90;11.10;;;5.90;99.90;;;;;;5111273;28;20032;-75
2023/11/30 08:28:16;;;;;;;18.17;11.55;;;6.00;99.90;;;;;;5109878;28;20488;-72
2023/11/30 08:30:44;;;;;;;15.32;11.25;;;6.10;99.90;;;;;;5111014;28;20440;-75
2023/11/30 08:33:11;;;;;;;19.50;12.45;;;6.10;99.90;;;;;;5108556;28;20367;-73
2023/11/30 08:35:38;;;;;;;16.88;12.07;;;6.10;99.90;;;;;;5108304;28;20036;-74
2023/11/30 08:38:06;;;;;;;16.83;12.30;;;6.10;99.90;;;;;;5089077;28;20541;-73
2023/11/30 08:40:33;;;;;;;20.30;13.25;;;6.00;99.90;;;;;;5105341;28;20059;-75
2023/11/30 08:43:00;;;;;;;21.85;13.40;;;6.00;99.90;;;;;;5105401;28;20035;-73
2023/11/30 08:45:28;;;;;;;19.38;13.77;;;5.90;99.90;;;;;;5106364;28;20085;-74
2023/11/30 08:47:58;;;;;;;17.38;12.93;;;6.00;99.90;;;;;;5101823;28;20044;-74
2023/11/30 08:50:25;;;;;;;20.50;13.35;;;6.00;99.90;;;;;;5104712;28;20047;-73
2023/11/30 08:52:53;;;;;;;20.25;13.40;;;6.20;99.90;;;;;;5110369;28;20062;-73
2023/11/30 08:55:20;;;;;;;22.10;13.10;;;6.30;99.90;;;;;;5108699;28;20046;-73
2023/11/30 08:57:48;;;;;;;20.02;13.15;;;6.50;99.90;;;;;;5102732;28;20036;-73
2023/11/30 09:00:16;;;;;;;20.17;13.40;;;6.70;99.90;;;;;;5108556;28;20118;-73
2023/11/30 09:02:47;;;;;;;21.70;14.13;;;6.70;99.90;;;;;;5105948;28;20067;-73
2023/11/30 09:05:14;;;;;;;19.95;14.00;;;6.70;99.90;;;;;;5106160;28;20084;-75
2023/11/30 09:07:42;;;;;;;17.83;13.52;;;6.60;99.90;;;;;;5110328;28;20416;-74
2023/11/30 09:10:09;;;;;;;20.00;14.10;;;6.70;99.90;;;;;;5109764;27;20068;-76
2023/11/30 09:12:36;;;;;;;20.55;14.43;;;6.80;99.90;;;;;;5085307;28;20476;-75
2023/11/30 09:15:08;;;;;;;23.35;14.00;;;7.00;99.90;;;;;;5096928;28;20063;-76
2023/11/30 09:17:36;;;;;;;26.35;14.13;;;7.00;99.90;;;;;;5093939;28;20110;-74
2023/11/30 09:20:07;;;;;;;23.63;14.77;;;7.10;99.90;;;;;;5083907;28;20043;-74
2023/11/30 09:22:35;;;;;;;20.77;14.15;;;7.20;99.90;;;;;;5088929;28;20043;-75
2023/11/30 09:25:03;;;;;;;20.83;13.93;;;7.30;99.90;;;;;;5102638;28;20039;-75
2023/11/30 09:27:32;;;;;;;21.83;13.80;;;7.40;99.90;;;;;;5105978;28;20486;-74
2023/11/30 09:30:01;;;;;;;34.67;22.70;;;7.40;99.90;;;;;;5101667;28;20044;-72
2023/11/30 09:32:28;;;;;;;22.33;15.07;;;7.40;99.90;;;;;;5104604;28;20064;-73
2023/11/30 09:34:55;;;;;;;22.60;16.05;;;7.40;99.90;;;;;;5108734;28;20035;-73
2023/11/30 09:37:23;;;;;;;22.23;15.23;;;7.30;99.90;;;;;;5106820;28;20023;-73
2023/11/30 09:39:50;;;;;;;22.38;15.82;;;7.30;99.90;;;;;;5105510;28;20071;-75
2023/11/30 09:42:18;;;;;;;21.13;15.73;;;7.30;99.90;;;;;;5108678;28;20024;-75
2023/11/30 09:44:46;;;;;;;27.92;16.17;;;7.30;99.90;;;;;;5091945;28;20509;-75
2023/11/30 09:47:14;;;;;;;23.83;15.02;;;7.20;99.90;;;;;;5108329;28;20360;-75
2023/11/30 09:49:42;;;;;;;22.80;15.50;;;7.40;99.90;;;;;;5107285;28;20130;-74
2023/11/30 09:52:10;;;;;;;24.15;15.55;;;7.60;99.90;;;;;;5105998;28;20047;-73
2023/11/30 09:54:38;;;;;;;23.90;14.48;;;7.80;99.90;;;;;;5107117;28;20440;-74
2023/11/30 09:57:06;;;;;;;22.08;14.55;;;8.00;99.90;;;;;;5106801;28;20387;-73
2023/11/30 09:59:33;;;;;;;22.55;14.82;;;8.20;99.90;;;;;;5105339;28;20044;-75
2023/11/30 10:02:00;;;;;;;25.80;14.68;;;8.30;99.90;;;;;;5108245;28;20077;-76
2023/11/30 10:04:32;;;;;;;23.45;14.13;;;8.20;99.90;;;;;;5091399;28;20454;-77
2023/11/30 10:07:00;;;;;;;25.13;13.50;;;8.10;99.90;;;;;;5095819;28;20374;-75
2023/11/30 10:09:27;;;;;;;21.88;14.13;;;8.10;99.90;;;;;;5104934;28;20107;-77
2023/11/30 10:11:54;;;;;;;20.95;13.02;;;8.20;99.90;;;;;;5088899;28;20070;-74
2023/11/30 10:14:22;;;;;;;17.30;12.63;;;8.20;99.90;;;;;;5093681;28;20036;-77
2023/11/30 10:16:49;;;;;;;22.98;14.82;;;8.30;99.90;;;;;;5091241;28;20115;-77
2023/11/30 10:19:34;;;;;;;22.85;14.48;;;8.50;99.90;;;;;;5092713;28;20039;-73
2023/11/30 10:22:03;;;;;;;17.80;13.07;;;8.90;99.90;;;;;;5088832;28;20035;-73
2023/11/30 10:24:30;;;;;;;17.83;12.32;;;9.10;99.90;;;;;;5089777;28;20046;-74
2023/11/30 10:27:01;;;;;;;19.58;12.25;;;8.80;99.90;;;;;;5087802;28;20462;-74
2023/11/30 10:29:31;;;;;;;15.05;10.98;;;8.50;99.90;;;;;;5091140;28;20225;-74
2023/11/30 10:32:02;;;;;;;13.57;9.33;;;8.40;99.90;;;;;;5096972;28;20024;-74
2023/11/30 10:34:38;;;;;;;14.18;7.82;;;8.40;99.90;;;;;;5104301;28;20046;-73
2023/11/30 10:37:06;;;;;;;9.68;7.38;;;8.40;99.90;;;;;;5106241;28;20024;-74
2023/11/30 10:39:41;;;;;;;9.85;7.50;;;8.40;99.90;;;;;;5102704;28;20118;-73
2023/11/30 10:42:12;;;;;;;10.23;7.32;;;7.90;99.90;;;;;;5102917;28;20020;-72
2023/11/30 10:44:42;;;;;;;14.48;8.35;;;7.70;99.90;;;;;;5088336;28;20510;-72
2023/11/30 10:47:10;;;;;;;9.27;7.80;;;7.70;99.90;;;;;;5101231;28;20031;-76
2023/11/30 10:49:38;;;;;;;16.45;8.63;;;7.60;99.90;;;;;;5096518;28;20032;-73
2023/11/30 10:52:07;;;;;;;10.57;8.20;;;7.70;99.90;;;;;;5101631;28;20479;-74
2023/11/30 10:54:42;;;;;;;11.35;8.25;;;7.80;99.90;;;;;;5106283;28;20089;-74
2023/11/30 10:57:09;;;;;;;9.10;6.80;;;7.90;99.90;;;;;;5104797;28;20059;-74
2023/11/30 10:59:42;;;;;;;10.50;8.10;;;8.00;99.90;;;;;;5104085;28;20413;-72
2023/11/30 11:02:15;;;;;;;12.23;7.38;;;8.20;99.90;;;;;;5104566;28;20038;-75
2023/11/30 11:04:42;;;;;;;9.73;7.95;;;8.30;99.90;;;;;;5105039;28;20031;-76
2023/11/30 11:07:14;;;;;;;12.13;8.45;;;8.20;99.90;;;;;;5097833;28;20099;-72
2023/11/30 11:09:43;;;;;;;9.35;7.63;;;8.20;99.90;;;;;;5098418;28;20462;-72
2023/11/30 11:12:37;;;;;;;9.75;8.02;;;8.20;99.90;;;;;;5108515;28;20034;-75
2023/11/30 11:15:08;;;;;;;11.40;7.95;;;8.20;99.90;;;;;;5101433;28;20043;-73
2023/11/30 11:17:49;;;;;;;9.32;7.70;;;8.20;99.90;;;;;;5102234;28;20048;-75
2023/11/30 11:20:29;;;;;;;12.57;9.13;;;8.10;99.90;;;;;;5103119;28;20043;-74
2023/11/30 11:23:20;;;;;;;12.98;8.50;;;8.00;99.90;;;;;;5106644;28;20021;-74
2023/11/30 11:25:47;;;;;;;10.60;8.13;;;7.90;99.90;;;;;;5106676;28;20074;-74
2023/11/30 11:28:19;;;;;;;13.25;8.38;;;7.70;99.90;;;;;;5106588;28;20381;-74
2023/11/30 11:30:48;;;;;;;10.68;8.88;;;7.70;99.90;;;;;;5098435;28;20413;-75
2023/11/30 11:33:17;;;;;;;12.52;8.60;;;7.70;99.90;;;;;;5096446;28;20031;-74
2023/11/30 11:35:45;;;;;;;11.18;8.68;;;7.90;99.90;;;;;;5109519;28;20055;-75
2023/11/30 11:38:13;;;;;;;13.27;9.20;;;8.00;99.90;;;;;;5105814;28;21848;-74
2023/11/30 11:40:41;;;;;;;13.73;9.27;;;8.00;99.90;;;;;;5111207;27;20034;-76
2023/11/30 11:43:09;;;;;;;12.85;8.57;;;8.00;99.90;;;;;;5111807;28;20042;-75
2023/11/30 11:45:36;;;;;;;11.02;8.68;;;8.10;99.90;;;;;;5108769;28;20089;-76
2023/11/30 11:48:04;;;;;;;10.93;9.00;;;8.10;99.90;;;;;;5100114;28;20093;-73
2023/11/30 11:50:32;;;;;;;11.48;8.48;;;8.10;99.90;;;;;;5101476;28;20071;-74
2023/11/30 11:53:00;;;;;;;12.07;8.73;;;8.10;99.90;;;;;;5080340;28;20035;-79
2023/11/30 11:55:28;;;;;;;15.65;8.55;;;8.10;99.90;;;;;;5093181;28;20048;-74
2023/11/30 11:57:56;;;;;;;11.73;8.98;;;7.90;99.90;;;;;;5106214;28;20031;-73
2023/11/30 12:00:24;;;;;;;11.25;8.48;;;7.70;99.90;;;;;;5100970;28;20111;-72
2023/11/30 12:03:02;;;;;;;12.43;8.77;;;7.80;99.90;;;;;;5108479;28;20055;-74
2023/11/30 12:05:30;;;;;;;12.13;8.45;;;7.90;99.90;;;;;;5110570;28;20035;-74
2023/11/30 12:08:03;;;;;;;13.50;8.93;;;7.90;99.90;;;;;;5110562;28;20062;-76
2023/11/30 12:10:48;;;;;;;10.48;8.20;;;8.00;99.90;;;;;;5106719;28;20040;-76
2023/11/30 12:13:16;;;;;;;14.38;8.23;;;7.90;99.90;;;;;;5104476;28;20081;-73
2023/11/30 12:15:44;;;;;;;11.63;8.85;;;7.80;99.90;;;;;;5103203;28;20359;-75
2023/11/30 12:18:14;;;;;;;11.02;8.60;;;7.80;99.90;;;;;;5106115;28;20441;-78
2023/11/30 12:20:59;;;;;;;10.73;8.63;;;7.90;99.90;;;;;;5111111;27;20031;-74
2023/11/30 12:23:26;;;;;;;10.63;8.07;;;7.90;99.90;;;;;;5107556;28;20042;-75
2023/11/30 12:25:54;;;;;;;13.73;9.23;;;7.80;99.90;;;;;;5106091;28;20039;-74
2023/11/30 12:28:22;;;;;;;15.63;10.55;;;7.90;99.90;;;;;;5111675;27;20035;-75
2023/11/30 12:30:49;;;;;;;20.50;12.77;;;7.90;99.90;;;;;;5106215;27;20521;-75
2023/11/30 12:33:17;;;;;;;19.48;12.73;;;7.50;99.90;;;;;;5108573;28;20035;-76
2023/11/30 12:35:44;;;;;;;19.05;12.15;;;7.60;99.90;;;;;;5079236;28;20059;-76
2023/11/30 12:38:30;;;;;;;18.63;12.18;;;7.50;99.90;;;;;;5105055;28;20098;-75
2023/11/30 12:40:58;;;;;;;23.98;13.57;;;7.30;99.90;;;;;;5106580;28;20056;-75
2023/11/30 12:43:25;;;;;;;17.73;13.15;;;7.10;99.90;;;;;;5078853;28;20434;-76
2023/11/30 12:45:53;;;;;;;21.33;12.80;;;7.00;99.90;;;;;;5105425;28;20043;-76
2023/11/30 12:48:21;;;;;;;19.58;13.02;;;7.00;99.90;;;;;;5106228;28;20031;-75
2023/11/30 12:50:50;;;;;;;17.55;12.45;;;7.10;99.90;;;;;;5110086;27;20028;-76
2023/11/30 12:53:18;;;;;;;21.35;13.70;;;7.20;99.90;;;;;;5090420;28;20156;-75
2023/11/30 12:55:45;;;;;;;20.23;13.55;;;7.20;99.90;;;;;;5069756;28;20034;-75